createdAt,value
2018-06-04T00:02:11.909Z,15.43
2018-06-04T00:04:39.968Z,15.30
2018-06-04T00:07:08.033Z,15.95
2018-06-04T00:09:36.105Z,17.27
2018-06-04T00:12:04.178Z,16.80
2018-06-04T00:14:32.225Z,15.30
2018-06-04T00:17:00.285Z,17.10
2018-06-04T00:19:28.321Z,18.65
2018-06-04T00:21:56.373Z,15.30
2018-06-04T00:24:24.408Z,15.72
2018-06-04T00:26:52.533Z,18.00
2018-06-04T00:29:20.577Z,19.90
2018-06-04T00:31:48.636Z,17.60
2018-06-04T00:34:16.696Z,17.15
2018-06-04T00:36:44.736Z,15.38
2018-06-04T00:39:12.784Z,16.73
2018-06-04T00:41:40.828Z,14.30
2018-06-04T00:44:08.868Z,15.55
2018-06-04T00:46:36.924Z,15.80
2018-06-04T00:49:04.957Z,18.95
2018-06-04T00:51:33.009Z,15.60
2018-06-04T00:54:01.052Z,17.90
2018-06-04T00:56:28.997Z,15.43
2018-06-04T00:58:57.041Z,15.50
2018-06-04T01:01:25.097Z,19.48
2018-06-04T01:03:53.128Z,19.20
2018-06-04T01:06:21.175Z,16.97
2018-06-04T01:08:49.218Z,16.93
2018-06-04T01:11:17.303Z,15.95
2018-06-04T01:13:45.339Z,16.95
2018-06-04T01:16:13.388Z,16.67
2018-06-04T01:18:41.433Z,16.20
2018-06-04T01:21:09.476Z,16.20
2018-06-04T01:23:37.516Z,15.00
2018-06-04T01:26:05.580Z,16.27
2018-06-04T01:28:33.613Z,15.50
2018-06-04T01:31:01.693Z,15.58
2018-06-04T01:33:29.762Z,14.47
2018-06-04T01:35:57.829Z,15.18
2018-06-04T01:38:25.888Z,16.23
2018-06-04T01:40:53.983Z,16.17
2018-06-04T01:43:22.034Z,17.90
2018-06-04T01:45:50.100Z,14.93
2018-06-04T01:48:18.164Z,18.50
2018-06-04T01:50:46.224Z,14.98
2018-06-04T01:53:14.284Z,15.28
2018-06-04T01:55:42.368Z,15.98
2018-06-04T01:58:10.427Z,20.43
2018-06-04T02:00:38.503Z,14.30
2018-06-04T02:03:06.566Z,16.52
2018-06-04T02:05:34.624Z,16.00
2018-06-04T02:08:02.691Z,16.25
2018-06-04T02:10:30.760Z,13.43
2018-06-04T02:12:58.837Z,16.97
2018-06-04T02:15:26.897Z,18.62
2018-06-04T02:17:54.972Z,16.97
2018-06-04T02:20:23.036Z,16.50
2018-06-04T02:22:51.108Z,15.65
2018-06-04T02:25:19.210Z,15.08
2018-06-04T02:27:47.271Z,18.60
2018-06-04T02:30:15.313Z,17.45
2018-06-04T02:32:43.372Z,16.32
2018-06-04T02:35:11.420Z,16.75
2018-06-04T02:37:39.473Z,15.60
2018-06-04T02:40:07.521Z,17.12
2018-06-04T02:42:35.624Z,17.15
2018-06-04T02:45:03.624Z,21.30
2018-06-04T02:47:31.669Z,15.28
2018-06-04T02:49:59.794Z,18.23
2018-06-04T02:52:27.766Z,17.32
2018-06-04T02:54:55.817Z,22.52
2018-06-04T02:57:23.888Z,19.27
2018-06-04T02:59:51.929Z,18.20
2018-06-04T03:02:19.981Z,16.87
2018-06-04T03:04:48.017Z,20.25
2018-06-04T03:07:16.064Z,18.40
2018-06-04T03:09:44.114Z,17.98
2018-06-04T03:12:12.160Z,17.73
2018-06-04T03:14:40.220Z,17.05
2018-06-04T03:17:08.285Z,18.50
2018-06-04T03:19:36.321Z,18.80
2018-06-04T03:22:04.373Z,21.45
2018-06-04T03:24:32.425Z,17.80
2018-06-04T03:27:00.497Z,19.57
2018-06-04T03:29:28.567Z,17.70
2018-06-04T03:31:56.641Z,19.20
2018-06-04T03:34:24.711Z,17.42
2018-06-04T03:36:52.784Z,20.88
2018-06-04T03:39:20.840Z,16.75
2018-06-04T03:41:48.908Z,24.90
2018-06-04T03:44:16.987Z,17.60
2018-06-04T03:46:45.049Z,16.05
2018-06-04T03:49:12.973Z,20.95
2018-06-04T03:51:41.061Z,16.12
2018-06-04T03:54:09.120Z,15.72
2018-06-04T03:56:37.192Z,15.53
2018-06-04T03:59:05.252Z,22.32
2018-06-04T04:01:33.316Z,17.05
2018-06-04T04:04:01.393Z,21.93
2018-06-04T04:06:29.448Z,22.15
2018-06-04T04:08:57.517Z,21.23
2018-06-04T04:11:25.583Z,17.62
2018-06-04T04:13:53.648Z,18.12
2018-06-04T04:16:21.722Z,19.57
2018-06-04T04:18:49.794Z,16.60
2018-06-04T04:21:18.665Z,20.30
2018-06-04T04:23:46.747Z,17.10
2018-06-04T04:26:14.812Z,18.07
2018-06-04T04:28:42.881Z,15.90
2018-06-04T04:31:10.920Z,18.65
2018-06-04T04:33:39.091Z,20.15
2018-06-04T04:36:07.117Z,17.50
2018-06-04T04:38:35.164Z,19.62
2018-06-04T04:41:03.215Z,21.57
2018-06-04T04:43:31.252Z,18.65
2018-06-04T04:45:59.292Z,21.82
2018-06-04T04:48:27.353Z,18.25
2018-06-04T04:50:55.401Z,15.78
2018-06-04T04:53:23.445Z,16.20
2018-06-04T04:55:51.518Z,19.05
2018-06-04T04:58:19.542Z,18.50
2018-06-04T05:00:47.577Z,16.90
2018-06-04T05:03:15.628Z,16.85
2018-06-04T05:05:43.681Z,24.12
2018-06-04T05:08:11.738Z,18.75
2018-06-04T05:10:39.769Z,20.00
2018-06-04T05:13:07.934Z,17.48
2018-06-04T05:15:35.961Z,15.43
2018-06-04T05:18:04.005Z,18.48
2018-06-04T05:20:32.056Z,19.05
2018-06-04T05:23:00.085Z,18.27
2018-06-04T05:25:28.125Z,21.80
2018-06-04T05:27:55.977Z,16.12
2018-06-04T05:30:24.016Z,18.23
2018-06-04T05:32:52.070Z,16.52
2018-06-04T05:35:20.118Z,17.30
2018-06-04T05:37:48.169Z,19.25
2018-06-04T05:40:16.225Z,22.02
2018-06-04T05:42:44.279Z,15.10
2018-06-04T05:45:12.322Z,17.77
2018-06-04T05:50:14.898Z,18.30
2018-06-04T05:52:42.946Z,16.30
2018-06-04T05:55:10.977Z,17.25
2018-06-04T05:57:39.027Z,15.93
2018-06-04T06:00:07.082Z,18.70
2018-06-04T06:02:35.129Z,17.77
2018-06-04T06:05:03.176Z,19.52
2018-06-04T06:07:31.226Z,17.85
2018-06-04T06:09:59.284Z,14.10
2018-06-04T06:12:27.393Z,14.90
2018-06-04T06:14:55.424Z,15.23
2018-06-04T06:17:23.460Z,16.25
2018-06-04T06:19:51.530Z,18.98
2018-06-04T06:22:19.572Z,14.15
2018-06-04T06:24:47.612Z,13.75
2018-06-04T06:27:15.706Z,18.50
2018-06-04T06:29:43.786Z,11.90
2018-06-04T06:32:11.841Z,10.82
2018-06-04T06:34:39.908Z,15.93
2018-06-04T06:37:07.968Z,10.45
2018-06-04T06:39:36.028Z,12.95
2018-06-04T06:42:04.105Z,11.43
2018-06-04T06:44:32.161Z,10.82
2018-06-04T06:47:00.222Z,11.97
2018-06-04T06:49:28.280Z,11.28
2018-06-04T06:51:56.345Z,9.43
2018-06-04T06:54:24.409Z,12.73
2018-06-04T06:56:52.465Z,11.65
2018-06-04T06:59:20.529Z,15.32
2018-06-04T07:01:48.629Z,11.75
2018-06-04T07:04:16.689Z,11.78
2018-06-04T07:06:44.789Z,11.20
2018-06-04T07:09:12.860Z,12.55
2018-06-04T07:11:40.957Z,10.03
2018-06-04T07:14:09.026Z,10.82
2018-06-04T07:16:37.085Z,10.55
2018-06-04T07:19:05.151Z,15.08
2018-06-04T07:21:33.206Z,11.70
2018-06-04T07:24:01.314Z,16.23
2018-06-04T07:26:29.364Z,9.15
2018-06-04T07:28:57.426Z,10.30
2018-06-04T07:31:25.453Z,9.80
2018-06-04T07:33:53.510Z,10.95
2018-06-04T07:36:21.541Z,10.68
2018-06-04T07:38:49.590Z,12.40
2018-06-04T07:41:18.061Z,15.08
2018-06-04T07:43:46.081Z,11.18
2018-06-04T07:46:14.113Z,12.23
2018-06-04T07:48:42.162Z,11.20
2018-06-04T07:51:10.199Z,9.85
2018-06-04T07:53:38.241Z,13.58
2018-06-04T07:56:06.288Z,9.95
2018-06-04T07:58:34.342Z,10.63
2018-06-04T08:01:02.385Z,12.60
2018-06-04T08:03:30.433Z,10.30
2018-06-04T08:05:58.483Z,9.60
2018-06-04T08:08:26.511Z,8.30
2018-06-04T08:10:54.555Z,8.60
2018-06-04T08:13:22.592Z,9.60
2018-06-04T08:15:50.633Z,9.98
2018-06-04T08:18:18.673Z,11.85
2018-06-04T08:20:46.716Z,9.95
2018-06-04T08:23:14.762Z,9.10
2018-06-04T08:25:42.807Z,10.10
2018-06-04T08:28:10.837Z,9.95
2018-06-04T08:30:38.885Z,11.73
2018-06-04T08:33:06.928Z,9.30
2018-06-04T08:35:35.056Z,9.05
2018-06-04T08:38:03.065Z,10.40
2018-06-04T08:40:31.113Z,17.70
2018-06-04T08:42:59.149Z,10.68
2018-06-04T08:45:27.193Z,9.23
2018-06-04T08:47:55.249Z,10.32
2018-06-04T08:50:23.337Z,10.35
2018-06-04T08:52:51.371Z,9.73
2018-06-04T08:55:19.417Z,10.63
2018-06-04T08:57:47.462Z,9.70
2018-06-04T09:00:15.532Z,8.30
2018-06-04T09:02:43.573Z,9.10
2018-06-04T09:05:11.505Z,16.35
2018-06-04T09:07:39.544Z,8.93
2018-06-04T09:10:07.592Z,10.78
2018-06-04T09:12:35.648Z,9.05
2018-06-04T09:15:03.696Z,8.30
2018-06-04T09:17:31.732Z,8.78
2018-06-04T09:19:59.783Z,10.72
2018-06-04T09:22:27.825Z,8.03
2018-06-04T09:24:55.869Z,8.08
2018-06-04T09:27:23.917Z,8.80
2018-06-04T09:29:51.964Z,8.98
2018-06-04T09:32:20.055Z,10.15
2018-06-04T09:34:48.060Z,8.93
2018-06-04T09:37:16.099Z,9.30
2018-06-04T09:39:44.151Z,11.12
2018-06-04T09:42:12.185Z,13.28
2018-06-04T09:44:40.233Z,10.18
2018-06-04T09:47:08.264Z,8.15
2018-06-04T09:49:36.116Z,9.23
2018-06-04T09:52:04.152Z,9.10
2018-06-04T09:54:32.197Z,10.23
2018-06-04T09:57:00.241Z,10.43
2018-06-04T09:59:28.292Z,8.90
2018-06-04T10:01:56.351Z,8.68
2018-06-04T10:04:24.406Z,8.93
2018-06-04T10:06:52.444Z,9.15
2018-06-04T10:09:20.892Z,8.60
2018-06-04T10:11:48.942Z,10.63
2018-06-04T10:14:16.989Z,8.43
2018-06-04T10:16:45.029Z,11.53
2018-06-04T10:19:13.068Z,14.25
2018-06-04T10:21:41.121Z,12.15
2018-06-04T10:24:09.157Z,9.20
2018-06-04T10:26:37.204Z,9.55
2018-06-04T10:29:05.278Z,12.50
2018-06-04T10:31:33.354Z,8.53
2018-06-04T10:34:01.417Z,9.05
2018-06-04T10:36:29.498Z,9.85
2018-06-04T10:38:57.558Z,13.70
2018-06-04T10:41:25.634Z,9.55
2018-06-04T10:43:53.697Z,6.80
2018-06-04T10:46:21.769Z,7.22
2018-06-04T10:48:49.843Z,7.95
2018-06-04T10:51:17.905Z,8.48
2018-06-04T10:53:45.973Z,7.40
2018-06-04T10:56:14.041Z,7.15
2018-06-04T10:58:42.099Z,6.05
2018-06-04T11:01:10.178Z,6.12
2018-06-04T11:03:38.233Z,7.33
2018-06-04T11:06:06.304Z,8.43
2018-06-04T11:08:34.363Z,6.03
2018-06-04T11:11:02.428Z,9.08
2018-06-04T11:13:30.487Z,6.25
2018-06-04T11:15:58.566Z,7.75
2018-06-04T11:18:26.616Z,6.75
2018-06-04T11:20:54.681Z,6.53
2018-06-04T11:23:22.745Z,5.92
2018-06-04T11:25:50.842Z,10.78
2018-06-04T11:28:18.898Z,4.45
2018-06-04T11:30:46.957Z,7.17
2018-06-04T11:33:14.997Z,5.28
2018-06-04T11:35:43.051Z,7.67
2018-06-04T11:38:11.096Z,5.65
2018-06-04T11:40:39.162Z,8.40
2018-06-04T11:43:06.992Z,5.35
2018-06-04T11:45:35.049Z,6.40
2018-06-04T11:48:03.102Z,7.05
2018-06-04T11:50:31.165Z,6.20
2018-06-04T11:52:59.210Z,7.60
2018-06-04T11:55:27.267Z,6.75
2018-06-04T11:57:55.311Z,6.60
2018-06-04T12:00:23.360Z,9.13
2018-06-04T12:02:51.403Z,10.48
2018-06-04T12:05:19.456Z,6.30
2018-06-04T12:07:47.499Z,7.65
2018-06-04T12:10:15.549Z,7.35
2018-06-04T12:12:43.592Z,7.05
2018-06-04T12:15:11.646Z,6.70
2018-06-04T12:17:39.700Z,6.78
2018-06-04T12:20:07.752Z,5.90
2018-06-04T12:22:35.805Z,6.83
2018-06-04T12:25:03.853Z,11.50
2018-06-04T12:27:31.903Z,9.03
2018-06-04T12:29:59.980Z,5.70
2018-06-04T12:32:28.049Z,9.10
2018-06-04T12:34:56.121Z,14.20
2018-06-04T12:37:25.156Z,7.37
2018-06-04T12:39:53.225Z,5.97
2018-06-04T12:42:21.300Z,7.23
2018-06-04T12:44:49.356Z,7.63
2018-06-04T12:47:17.423Z,7.17
2018-06-04T12:49:45.501Z,9.20
2018-06-04T12:52:13.564Z,7.00
2018-06-04T12:54:41.629Z,6.77
2018-06-04T12:57:09.685Z,7.60
2018-06-04T12:59:37.752Z,6.53
2018-06-04T13:02:05.893Z,7.60
2018-06-04T13:04:34.039Z,7.40
2018-06-04T13:07:02.034Z,7.03
2018-06-04T13:09:30.088Z,8.37
2018-06-04T13:11:58.165Z,8.28
2018-06-04T13:14:26.254Z,5.53
2018-06-04T13:16:54.379Z,5.63
2018-06-04T13:19:22.428Z,5.15
2018-06-04T13:21:50.508Z,6.67
2018-06-04T13:24:18.757Z,7.40
2018-06-04T13:26:46.905Z,6.62
2018-06-04T13:29:14.990Z,5.05
2018-06-04T13:31:43.059Z,6.25
2018-06-04T13:34:11.008Z,8.40
2018-06-04T13:36:39.076Z,7.08
2018-06-04T13:39:08.428Z,7.53
2018-06-04T13:41:36.663Z,9.48
2018-06-04T13:44:04.736Z,10.63
2018-06-04T13:46:32.813Z,12.50
2018-06-04T13:49:00.880Z,6.05
2018-06-04T13:51:28.948Z,11.63
2018-06-04T13:53:57.048Z,5.92
2018-06-04T13:56:25.135Z,5.95
2018-06-04T13:58:53.172Z,9.28
2018-06-04T14:01:21.245Z,11.88
2018-06-04T14:03:49.301Z,9.95
2018-06-04T14:06:17.385Z,6.65
2018-06-04T14:08:45.451Z,6.97
2018-06-04T14:11:13.545Z,6.72
2018-06-04T14:13:41.585Z,7.00
2018-06-04T14:16:09.676Z,11.78
2018-06-04T14:18:37.744Z,6.47
2018-06-04T14:21:06.018Z,7.28
2018-06-04T14:23:34.072Z,7.08
2018-06-04T14:26:02.141Z,7.83
2018-06-04T14:28:30.213Z,10.72
2018-06-04T14:30:58.255Z,7.45
2018-06-04T14:33:26.304Z,9.73
2018-06-04T14:35:54.348Z,8.23
2018-06-04T14:38:22.405Z,9.18
2018-06-04T14:40:50.482Z,13.25
2018-06-04T14:43:18.537Z,9.28
2018-06-04T14:45:46.579Z,11.33
2018-06-04T14:48:15.284Z,6.67
2018-06-04T14:50:44.207Z,12.88
2018-06-04T14:53:12.296Z,10.15
2018-06-04T14:55:40.336Z,6.80
2018-06-04T14:58:08.383Z,6.70
2018-06-04T15:00:36.308Z,10.48
2018-06-04T15:03:05.068Z,7.60
2018-06-04T15:05:32.987Z,9.25
2018-06-04T15:08:01.033Z,9.00
2018-06-04T15:10:29.064Z,7.75
2018-06-04T15:12:57.115Z,20.10
2018-06-04T15:15:25.160Z,7.33
2018-06-04T15:17:53.213Z,7.62
2018-06-04T15:20:21.297Z,9.03
2018-06-04T15:22:49.313Z,6.42
2018-06-04T15:25:17.353Z,8.48
2018-06-04T15:27:45.397Z,6.85
2018-06-04T15:30:13.453Z,7.67
2018-06-04T15:32:41.508Z,9.00
2018-06-04T15:35:09.545Z,7.72
2018-06-04T15:37:37.540Z,10.32
2018-06-04T15:40:05.545Z,17.70
2018-06-04T15:42:33.679Z,9.48
2018-06-04T15:45:01.713Z,7.78
2018-06-04T15:47:29.764Z,8.80
2018-06-04T15:49:57.800Z,6.83
2018-06-04T15:52:25.841Z,14.10
2018-06-04T15:54:53.881Z,8.33
2018-06-04T15:57:22.001Z,6.90
2018-06-04T15:59:50.040Z,6.85
2018-06-04T16:02:18.088Z,6.85
2018-06-04T16:04:46.132Z,7.75
2018-06-04T16:07:14.180Z,13.25
2018-06-04T16:09:42.224Z,9.63
2018-06-04T16:12:10.279Z,6.55
2018-06-04T16:14:38.315Z,7.45
2018-06-04T16:17:06.369Z,6.47
2018-06-04T16:19:34.408Z,4.65
2018-06-04T16:22:02.455Z,6.87
2018-06-04T16:24:30.492Z,6.53
2018-06-04T16:26:58.533Z,6.75
2018-06-04T16:29:26.607Z,7.53
2018-06-04T16:31:54.664Z,6.00
2018-06-04T16:34:22.764Z,5.70
2018-06-04T16:36:50.825Z,4.97
2018-06-04T16:39:18.891Z,9.40
2018-06-04T16:41:46.964Z,5.25
2018-06-04T16:44:15.025Z,9.98
2018-06-04T16:46:43.078Z,6.35
2018-06-04T16:49:11.184Z,10.88
2018-06-04T16:51:39.249Z,4.65
2018-06-04T16:54:07.377Z,5.30
2018-06-04T16:56:35.428Z,4.55
2018-06-04T16:59:03.500Z,12.63
2018-06-04T17:01:31.589Z,6.92
2018-06-04T17:03:59.653Z,4.35
2018-06-04T17:06:27.708Z,7.15
2018-06-04T17:08:55.773Z,7.65
2018-06-04T17:11:24.021Z,6.25
2018-06-04T17:13:51.955Z,4.90
2018-06-04T17:16:20.025Z,5.30
2018-06-04T17:18:48.084Z,4.40
2018-06-04T17:21:16.007Z,5.28
2018-06-04T17:23:44.068Z,5.30
2018-06-04T17:26:12.168Z,10.50
2018-06-04T17:28:40.228Z,5.35
2018-06-04T17:31:08.300Z,4.90
2018-06-04T17:33:36.612Z,6.90
2018-06-04T17:36:04.880Z,5.25
2018-06-04T17:38:32.944Z,13.93
2018-06-04T17:41:00.998Z,4.72
2018-06-04T17:43:29.067Z,6.58
2018-06-04T17:45:57.127Z,5.95
2018-06-04T17:48:25.177Z,10.30
2018-06-04T17:50:53.232Z,4.70
2018-06-04T17:53:21.309Z,4.03
2018-06-04T17:55:49.366Z,10.13
2018-06-04T17:58:17.423Z,5.30
2018-06-04T18:00:45.486Z,5.97
2018-06-04T18:03:13.544Z,8.28
2018-06-04T18:05:41.604Z,6.75
2018-06-04T18:08:09.660Z,5.15
2018-06-04T18:10:37.734Z,7.45
2018-06-04T18:13:05.795Z,10.35
2018-06-04T18:15:33.857Z,5.03
2018-06-04T18:18:01.921Z,4.90
2018-06-04T18:20:30.118Z,7.87
2018-06-04T18:22:58.620Z,7.58
2018-06-04T18:25:26.706Z,5.12
2018-06-04T18:27:55.145Z,4.85
2018-06-04T18:30:23.216Z,5.20
2018-06-04T18:32:51.352Z,5.83
2018-06-04T18:35:19.449Z,8.38
2018-06-04T18:37:47.516Z,6.47
2018-06-04T18:40:15.793Z,8.50
2018-06-04T18:42:44.840Z,6.58
2018-06-04T18:45:13.560Z,12.93
2018-06-04T18:47:41.809Z,5.33
2018-06-04T18:50:10.097Z,7.37
2018-06-04T18:52:38.486Z,6.30
2018-06-04T18:55:06.657Z,6.42
2018-06-04T18:57:34.996Z,7.60
2018-06-04T19:00:03.396Z,5.33
2018-06-04T19:02:31.454Z,9.20
2018-06-04T19:04:59.524Z,8.28
2018-06-04T19:07:27.577Z,7.95
2018-06-04T19:09:55.641Z,6.80
2018-06-04T19:12:23.694Z,8.15
2018-06-04T19:14:51.755Z,9.68
2018-06-04T19:17:19.804Z,14.03
2018-06-04T19:19:47.877Z,10.35
2018-06-04T19:22:15.937Z,7.25
2018-06-04T19:24:44.108Z,9.90
2018-06-04T19:27:12.156Z,9.43
2018-06-04T19:29:40.220Z,10.60
2018-06-04T19:32:08.269Z,9.80
2018-06-04T19:34:36.335Z,9.90
2018-06-04T19:37:04.404Z,11.53
2018-06-04T19:39:32.456Z,9.40
2018-06-04T19:42:00.522Z,12.58
2018-06-04T19:44:29.607Z,7.78
2018-06-04T19:46:57.735Z,9.48
2018-06-04T19:49:25.793Z,8.25
2018-06-04T19:51:53.844Z,7.22
2018-06-04T19:54:21.903Z,8.10
2018-06-04T19:56:49.948Z,8.90
2018-06-04T19:59:18.012Z,11.88
2018-06-04T20:01:46.075Z,9.08
2018-06-04T20:04:14.149Z,9.90
2018-06-04T20:06:42.210Z,11.35
2018-06-04T20:09:10.362Z,10.13
2018-06-04T20:11:38.569Z,8.10
2018-06-04T20:14:06.730Z,10.98
2018-06-04T20:16:34.991Z,7.90
2018-06-04T20:19:03.035Z,11.43
2018-06-04T20:21:31.411Z,8.58
2018-06-04T20:23:59.553Z,8.10
2018-06-04T20:26:27.563Z,10.80
2018-06-04T20:28:55.632Z,12.28
2018-06-04T20:31:23.560Z,12.98
2018-06-04T20:33:51.620Z,10.70
2018-06-04T20:36:19.681Z,11.45
2018-06-04T20:38:47.765Z,9.78
2018-06-04T20:41:15.824Z,10.50
2018-06-04T20:43:43.898Z,10.28
2018-06-04T20:46:11.956Z,10.40
2018-06-04T20:48:40.033Z,10.32
2018-06-04T20:51:08.104Z,8.98
2018-06-04T20:53:36.181Z,8.33
2018-06-04T20:56:04.240Z,8.65
2018-06-04T20:58:32.412Z,8.73
2018-06-04T21:01:00.472Z,7.17
2018-06-04T21:03:28.667Z,12.25
2018-06-04T21:05:56.804Z,13.22
2018-06-04T21:08:24.860Z,8.55
2018-06-04T21:10:52.921Z,8.10
2018-06-04T21:13:20.990Z,6.97
2018-06-04T21:15:49.432Z,10.35
2018-06-04T21:18:17.496Z,8.30
2018-06-04T21:20:45.567Z,8.30
2018-06-04T21:23:13.629Z,8.75
2018-06-04T21:25:41.702Z,7.70
2018-06-04T21:28:09.752Z,7.42
2018-06-04T21:30:37.808Z,9.25
2018-06-04T21:33:05.864Z,8.78
2018-06-04T21:35:33.904Z,8.85
2018-06-04T21:38:01.949Z,8.98
2018-06-04T21:40:30.045Z,7.80
2018-06-04T21:42:58.093Z,12.75
2018-06-04T21:45:26.136Z,8.40
2018-06-04T21:47:53.967Z,9.88
2018-06-04T21:50:22.020Z,11.63
2018-06-04T21:52:50.062Z,13.85
2018-06-04T21:55:18.159Z,8.98
2018-06-04T21:57:46.219Z,9.53
2018-06-04T22:00:14.291Z,8.60
2018-06-04T22:02:42.358Z,13.28
2018-06-04T22:05:10.425Z,10.15
2018-06-04T22:07:38.512Z,12.93
2018-06-04T22:10:06.593Z,11.65
2018-06-04T22:12:34.670Z,12.80
2018-06-04T22:15:02.754Z,11.15
2018-06-04T22:17:30.813Z,10.58
2018-06-04T22:19:58.888Z,17.98
2018-06-04T22:22:26.952Z,13.58
2018-06-04T22:24:55.021Z,13.15
2018-06-04T22:27:23.098Z,11.22
2018-06-04T22:29:51.157Z,11.48
2018-06-04T22:32:19.079Z,11.35
2018-06-04T22:34:47.193Z,11.43
2018-06-04T22:37:15.269Z,13.88
2018-06-04T22:39:43.320Z,10.58
2018-06-04T22:42:11.389Z,11.75
2018-06-04T22:44:40.901Z,15.45
2018-06-04T22:47:09.184Z,10.70
2018-06-04T22:49:37.245Z,12.35
2018-06-04T22:52:05.316Z,11.60
2018-06-04T22:54:33.448Z,12.88
2018-06-04T22:57:01.521Z,11.15
2018-06-04T22:59:29.580Z,11.78
2018-06-04T23:01:57.649Z,12.88
2018-06-04T23:04:25.708Z,13.85
2018-06-04T23:06:53.777Z,14.13
2018-06-04T23:09:21.836Z,11.73
2018-06-04T23:11:49.892Z,12.85
2018-06-04T23:14:17.969Z,14.33
2018-06-04T23:16:46.036Z,12.73
2018-06-04T23:19:14.089Z,15.50
2018-06-04T23:21:41.948Z,16.20
2018-06-04T23:24:10.026Z,11.48
2018-06-04T23:26:38.080Z,18.23
2018-06-04T23:29:06.176Z,14.47
2018-06-04T23:31:34.229Z,14.25
2018-06-04T23:34:02.268Z,12.47
2018-06-04T23:36:30.324Z,14.43
2018-06-04T23:38:58.368Z,14.30
2018-06-04T23:41:26.412Z,14.50
2018-06-04T23:43:54.451Z,15.50
2018-06-04T23:46:22.505Z,17.37
2018-06-04T23:48:50.560Z,14.18
2018-06-04T23:51:18.612Z,13.13
2018-06-04T23:53:46.664Z,19.00
2018-06-04T23:56:14.719Z,15.18
2018-06-04T23:58:42.773Z,16.80
